sensor_id;sensor_type;location;lat;lon;timestamp;P1;durP1;ratioP1;P2;durP2;ratioP2
2650;SDS011;1335;48.180;16.342;2023-12-04T00:01:12;18.80;;;12.52;;
2650;SDS011;1335;48.180;16.342;2023-12-04T00:03:40;19.80;;;12.98;;
2650;SDS011;1335;48.180;16.342;2023-12-04T00:06:07;14.10;;;11.10;;
2650;SDS011;1335;48.180;16.342;2023-12-04T00:08:36;16.45;;;10.60;;
2650;SDS011;1335;48.180;16.342;2023-12-04T00:11:04;14.68;;;10.80;;
2650;SDS011;1335;48.180;16.342;2023-12-04T00:13:32;19.10;;;12.55;;
2650;SDS011;1335;48.180;16.342;2023-12-04T00:15:59;15.52;;;11.30;;
2650;SDS011;1335;48.180;16.342;2023-12-04T00:18:27;16.40;;;11.85;;
2650;SDS011;1335;48.180;16.342;2023-12-04T00:20:54;19.00;;;12.38;;
2650;SDS011;1335;48.180;16.342;2023-12-04T00:23:21;14.63;;;10.63;;
2650;SDS011;1335;48.180;16.342;2023-12-04T00:25:50;20.02;;;11.90;;
2650;SDS011;1335;48.180;16.342;2023-12-04T00:28:17;14.77;;;10.35;;
2650;SDS011;1335;48.180;16.342;2023-12-04T00:30:45;16.40;;;12.15;;
2650;SDS011;1335;48.180;16.342;2023-12-04T00:33:12;15.48;;;11.00;;
2650;SDS011;1335;48.180;16.342;2023-12-04T00:35:39;16.67;;;11.82;;
2650;SDS011;1335;48.180;16.342;2023-12-04T00:38:07;20.95;;;12.30;;
2650;SDS011;1335;48.180;16.342;2023-12-04T00:40:34;19.67;;;12.38;;
2650;SDS011;1335;48.180;16.342;2023-12-04T00:43:03;15.30;;;11.02;;
2650;SDS011;1335;48.180;16.342;2023-12-04T00:45:30;18.90;;;12.50;;
2650;SDS011;1335;48.180;16.342;2023-12-04T00:47:57;19.95;;;11.85;;
2650;SDS011;1335;48.180;16.342;2023-12-04T00:50:24;20.13;;;13.02;;
2650;SDS011;1335;48.180;16.342;2023-12-04T00:52:52;16.30;;;11.70;;
2650;SDS011;1335;48.180;16.342;2023-12-04T00:55:19;18.25;;;11.77;;
2650;SDS011;1335;48.180;16.342;2023-12-04T00:57:46;16.65;;;10.73;;
2650;SDS011;1335;48.180;16.342;2023-12-04T01:00:15;16.50;;;11.82;;
2650;SDS011;1335;48.180;16.342;2023-12-04T01:02:43;17.13;;;11.68;;
2650;SDS011;1335;48.180;16.342;2023-12-04T01:05:10;17.73;;;11.00;;
2650;SDS011;1335;48.180;16.342;2023-12-04T01:07:37;16.88;;;12.32;;
2650;SDS011;1335;48.180;16.342;2023-12-04T01:10:05;20.05;;;11.88;;
2650;SDS011;1335;48.180;16.342;2023-12-04T01:12:33;17.65;;;10.73;;
2650;SDS011;1335;48.180;16.342;2023-12-04T01:15:00;15.00;;;10.85;;
2650;SDS011;1335;48.180;16.342;2023-12-04T01:17:29;18.65;;;11.57;;
2650;SDS011;1335;48.180;16.342;2023-12-04T01:19:57;16.33;;;11.23;;
2650;SDS011;1335;48.180;16.342;2023-12-04T01:22:24;19.23;;;11.43;;
2650;SDS011;1335;48.180;16.342;2023-12-04T01:24:51;15.27;;;10.75;;
2650;SDS011;1335;48.180;16.342;2023-12-04T01:27:18;15.75;;;11.00;;
2650;SDS011;1335;48.180;16.342;2023-12-04T01:29:46;16.40;;;10.90;;
2650;SDS011;1335;48.180;16.342;2023-12-04T01:32:13;17.25;;;10.80;;
2650;SDS011;1335;48.180;16.342;2023-12-04T01:34:42;14.35;;;9.90;;
2650;SDS011;1335;48.180;16.342;2023-12-04T01:37:09;16.23;;;9.52;;
2650;SDS011;1335;48.180;16.342;2023-12-04T01:39:37;13.02;;;9.23;;
2650;SDS011;1335;48.180;16.342;2023-12-04T01:42:04;12.93;;;9.30;;
2650;SDS011;1335;48.180;16.342;2023-12-04T01:44:31;14.77;;;9.65;;
2650;SDS011;1335;48.180;16.342;2023-12-04T01:46:58;14.95;;;10.00;;
2650;SDS011;1335;48.180;16.342;2023-12-04T01:49:26;12.48;;;9.80;;
2650;SDS011;1335;48.180;16.342;2023-12-04T01:51:55;13.07;;;9.60;;
2650;SDS011;1335;48.180;16.342;2023-12-04T01:54:22;16.38;;;10.05;;
2650;SDS011;1335;48.180;16.342;2023-12-04T01:56:49;13.45;;;8.95;;
2650;SDS011;1335;48.180;16.342;2023-12-04T01:59:17;12.90;;;9.40;;
2650;SDS011;1335;48.180;16.342;2023-12-04T02:01:44;14.13;;;8.77;;
2650;SDS011;1335;48.180;16.342;2023-12-04T02:04:11;11.43;;;9.35;;
2650;SDS011;1335;48.180;16.342;2023-12-04T02:06:40;17.35;;;10.30;;
2650;SDS011;1335;48.180;16.342;2023-12-04T02:09:08;14.98;;;10.10;;
2650;SDS011;1335;48.180;16.342;2023-12-04T02:11:38;16.52;;;9.77;;
2650;SDS011;1335;48.180;16.342;2023-12-04T02:14:05;15.82;;;8.07;;
2650;SDS011;1335;48.180;16.342;2023-12-04T02:16:33;15.73;;;9.93;;
2650;SDS011;1335;48.180;16.342;2023-12-04T02:19:03;14.90;;;9.52;;
2650;SDS011;1335;48.180;16.342;2023-12-04T02:21:30;13.98;;;8.95;;
2650;SDS011;1335;48.180;16.342;2023-12-04T02:23:59;13.63;;;8.60;;
2650;SDS011;1335;48.180;16.342;2023-12-04T02:26:28;13.60;;;9.00;;
2650;SDS011;1335;48.180;16.342;2023-12-04T02:28:58;13.40;;;8.65;;
2650;SDS011;1335;48.180;16.342;2023-12-04T02:31:26;13.95;;;9.20;;
2650;SDS011;1335;48.180;16.342;2023-12-04T02:33:55;14.45;;;8.75;;
2650;SDS011;1335;48.180;16.342;2023-12-04T02:36:22;12.48;;;8.27;;
2650;SDS011;1335;48.180;16.342;2023-12-04T02:38:51;12.82;;;8.57;;
2650;SDS011;1335;48.180;16.342;2023-12-04T02:41:20;12.05;;;8.30;;
2650;SDS011;1335;48.180;16.342;2023-12-04T02:43:47;11.48;;;8.45;;
2650;SDS011;1335;48.180;16.342;2023-12-04T02:46:14;11.52;;;8.50;;
2650;SDS011;1335;48.180;16.342;2023-12-04T02:48:42;13.93;;;8.95;;
2650;SDS011;1335;48.180;16.342;2023-12-04T02:51:09;14.48;;;8.65;;
2650;SDS011;1335;48.180;16.342;2023-12-04T02:53:37;11.90;;;7.57;;
2650;SDS011;1335;48.180;16.342;2023-12-04T02:56:05;14.80;;;8.88;;
2650;SDS011;1335;48.180;16.342;2023-12-04T02:58:33;11.07;;;8.02;;
2650;SDS011;1335;48.180;16.342;2023-12-04T03:01:01;11.32;;;8.13;;
2650;SDS011;1335;48.180;16.342;2023-12-04T03:03:28;13.02;;;7.97;;
2650;SDS011;1335;48.180;16.342;2023-12-04T03:05:55;15.05;;;8.73;;
2650;SDS011;1335;48.180;16.342;2023-12-04T03:08:23;13.40;;;8.50;;
2650;SDS011;1335;48.180;16.342;2023-12-04T03:10:50;13.23;;;7.95;;
2650;SDS011;1335;48.180;16.342;2023-12-04T03:13:17;15.95;;;9.35;;
2650;SDS011;1335;48.180;16.342;2023-12-04T03:15:46;14.82;;;7.85;;
2650;SDS011;1335;48.180;16.342;2023-12-04T03:18:13;13.85;;;8.02;;
2650;SDS011;1335;48.180;16.342;2023-12-04T03:20:41;13.30;;;8.20;;
2650;SDS011;1335;48.180;16.342;2023-12-04T03:23:08;13.48;;;8.68;;
2650;SDS011;1335;48.180;16.342;2023-12-04T03:25:35;12.98;;;8.35;;
2650;SDS011;1335;48.180;16.342;2023-12-04T03:28:02;13.95;;;7.97;;
2650;SDS011;1335;48.180;16.342;2023-12-04T03:30:30;12.25;;;8.00;;
2650;SDS011;1335;48.180;16.342;2023-12-04T03:32:58;14.98;;;8.32;;
2650;SDS011;1335;48.180;16.342;2023-12-04T03:35:26;13.20;;;8.18;;
2650;SDS011;1335;48.180;16.342;2023-12-04T03:37:53;14.75;;;8.38;;
2650;SDS011;1335;48.180;16.342;2023-12-04T03:40:21;13.38;;;8.82;;
2650;SDS011;1335;48.180;16.342;2023-12-04T03:42:48;15.52;;;9.30;;
2650;SDS011;1335;48.180;16.342;2023-12-04T03:45:15;11.05;;;8.10;;
2650;SDS011;1335;48.180;16.342;2023-12-04T03:47:42;13.90;;;8.65;;
2650;SDS011;1335;48.180;16.342;2023-12-04T03:50:11;13.45;;;8.80;;
2650;SDS011;1335;48.180;16.342;2023-12-04T03:52:39;11.27;;;7.28;;
2650;SDS011;1335;48.180;16.342;2023-12-04T03:55:07;15.05;;;8.98;;
2650;SDS011;1335;48.180;16.342;2023-12-04T03:57:34;14.18;;;7.55;;
2650;SDS011;1335;48.180;16.342;2023-12-04T04:00:02;14.75;;;9.10;;
2650;SDS011;1335;48.180;16.342;2023-12-04T04:02:29;12.23;;;7.88;;
2650;SDS011;1335;48.180;16.342;2023-12-04T04:04:57;17.80;;;9.68;;
2650;SDS011;1335;48.180;16.342;2023-12-04T04:07:25;16.00;;;9.85;;
2650;SDS011;1335;48.180;16.342;2023-12-04T04:09:53;15.05;;;8.45;;
2650;SDS011;1335;48.180;16.342;2023-12-04T04:12:20;12.65;;;8.15;;
2650;SDS011;1335;48.180;16.342;2023-12-04T04:14:47;12.32;;;8.15;;
2650;SDS011;1335;48.180;16.342;2023-12-04T04:17:14;14.98;;;10.02;;
2650;SDS011;1335;48.180;16.342;2023-12-04T04:19:42;16.10;;;10.48;;
2650;SDS011;1335;48.180;16.342;2023-12-04T04:22:09;18.45;;;10.48;;
2650;SDS011;1335;48.180;16.342;2023-12-04T04:24:38;17.23;;;11.63;;
2650;SDS011;1335;48.180;16.342;2023-12-04T04:27:05;13.60;;;9.70;;
2650;SDS011;1335;48.180;16.342;2023-12-04T04:29:32;15.43;;;11.23;;
2650;SDS011;1335;48.180;16.342;2023-12-04T04:32:00;12.55;;;9.35;;
2650;SDS011;1335;48.180;16.342;2023-12-04T04:34:27;12.35;;;10.40;;
2650;SDS011;1335;48.180;16.342;2023-12-04T04:36:54;18.92;;;10.05;;
2650;SDS011;1335;48.180;16.342;2023-12-04T04:39:22;14.30;;;10.43;;
2650;SDS011;1335;48.180;16.342;2023-12-04T04:41:50;15.98;;;10.25;;
2650;SDS011;1335;48.180;16.342;2023-12-04T04:44:18;16.55;;;11.75;;
2650;SDS011;1335;48.180;16.342;2023-12-04T04:46:45;17.83;;;10.77;;
2650;SDS011;1335;48.180;16.342;2023-12-04T04:49:12;14.55;;;9.82;;
2650;SDS011;1335;48.180;16.342;2023-12-04T04:51:40;17.08;;;9.68;;
2650;SDS011;1335;48.180;16.342;2023-12-04T04:54:07;17.30;;;10.10;;
2650;SDS011;1335;48.180;16.342;2023-12-04T04:56:34;19.15;;;11.32;;
2650;SDS011;1335;48.180;16.342;2023-12-04T04:59:03;14.80;;;9.90;;
2650;SDS011;1335;48.180;16.342;2023-12-04T05:01:30;13.27;;;8.52;;
2650;SDS011;1335;48.180;16.342;2023-12-04T05:03:57;17.00;;;8.95;;
2650;SDS011;1335;48.180;16.342;2023-12-04T05:06:25;16.30;;;10.85;;
2650;SDS011;1335;48.180;16.342;2023-12-04T05:08:52;14.82;;;10.00;;
2650;SDS011;1335;48.180;16.342;2023-12-04T05:11:20;16.80;;;10.80;;
2650;SDS011;1335;48.180;16.342;2023-12-04T05:13:48;15.82;;;8.80;;
2650;SDS011;1335;48.180;16.342;2023-12-04T05:16:17;13.60;;;7.97;;
2650;SDS011;1335;48.180;16.342;2023-12-04T05:18:44;13.75;;;8.70;;
2650;SDS011;1335;48.180;16.342;2023-12-04T05:21:11;10.50;;;7.97;;
2650;SDS011;1335;48.180;16.342;2023-12-04T05:23:39;15.52;;;8.85;;
2650;SDS011;1335;48.180;16.342;2023-12-04T05:26:07;16.20;;;8.93;;
2650;SDS011;1335;48.180;16.342;2023-12-04T05:28:34;14.35;;;9.50;;
2650;SDS011;1335;48.180;16.342;2023-12-04T05:31:02;17.38;;;9.20;;
2650;SDS011;1335;48.180;16.342;2023-12-04T05:33:31;12.35;;;8.05;;
2650;SDS011;1335;48.180;16.342;2023-12-04T05:35:59;17.60;;;9.60;;
2650;SDS011;1335;48.180;16.342;2023-12-04T05:38:26;15.05;;;9.25;;
2650;SDS011;1335;48.180;16.342;2023-12-04T05:40:54;13.80;;;8.90;;
2650;SDS011;1335;48.180;16.342;2023-12-04T05:43:21;14.88;;;8.85;;
2650;SDS011;1335;48.180;16.342;2023-12-04T05:45:48;15.57;;;8.45;;
2650;SDS011;1335;48.180;16.342;2023-12-04T05:48:16;11.82;;;7.97;;
2650;SDS011;1335;48.180;16.342;2023-12-04T05:50:44;13.13;;;8.70;;
2650;SDS011;1335;48.180;16.342;2023-12-04T05:53:12;20.08;;;11.23;;
2650;SDS011;1335;48.180;16.342;2023-12-04T05:55:39;12.20;;;9.30;;
2650;SDS011;1335;48.180;16.342;2023-12-04T05:58:06;16.80;;;10.35;;
2650;SDS011;1335;48.180;16.342;2023-12-04T06:00:34;17.83;;;11.30;;
2650;SDS011;1335;48.180;16.342;2023-12-04T06:03:01;16.10;;;9.13;;
2650;SDS011;1335;48.180;16.342;2023-12-04T06:05:28;16.95;;;11.40;;
2650;SDS011;1335;48.180;16.342;2023-12-04T06:07:57;16.65;;;10.27;;
2650;SDS011;1335;48.180;16.342;2023-12-04T06:10:24;18.42;;;10.43;;
2650;SDS011;1335;48.180;16.342;2023-12-04T06:12:52;19.50;;;11.40;;
2650;SDS011;1335;48.180;16.342;2023-12-04T06:15:19;18.02;;;12.02;;
2650;SDS011;1335;48.180;16.342;2023-12-04T06:17:46;21.83;;;10.80;;
2650;SDS011;1335;48.180;16.342;2023-12-04T06:20:14;17.63;;;11.77;;
2650;SDS011;1335;48.180;16.342;2023-12-04T06:22:41;19.58;;;12.05;;
2650;SDS011;1335;48.180;16.342;2023-12-04T06:25:11;19.20;;;12.00;;
2650;SDS011;1335;48.180;16.342;2023-12-04T06:27:38;19.88;;;12.43;;
2650;SDS011;1335;48.180;16.342;2023-12-04T06:30:06;17.58;;;11.93;;
2650;SDS011;1335;48.180;16.342;2023-12-04T06:32:34;21.00;;;12.75;;
2650;SDS011;1335;48.180;16.342;2023-12-04T06:35:01;19.90;;;13.10;;
2650;SDS011;1335;48.180;16.342;2023-12-04T06:37:31;21.58;;;13.43;;
2650;SDS011;1335;48.180;16.342;2023-12-04T06:39:58;21.60;;;13.82;;
2650;SDS011;1335;48.180;16.342;2023-12-04T06:42:29;21.58;;;12.80;;
2650;SDS011;1335;48.180;16.342;2023-12-04T06:44:56;21.33;;;13.00;;
2650;SDS011;1335;48.180;16.342;2023-12-04T06:47:24;21.60;;;13.50;;
2650;SDS011;1335;48.180;16.342;2023-12-04T06:49:51;20.75;;;13.50;;
2650;SDS011;1335;48.180;16.342;2023-12-04T06:52:19;21.63;;;14.48;;
2650;SDS011;1335;48.180;16.342;2023-12-04T06:54:46;20.80;;;13.38;;
2650;SDS011;1335;48.180;16.342;2023-12-04T06:57:13;24.48;;;14.95;;
2650;SDS011;1335;48.180;16.342;2023-12-04T06:59:42;21.30;;;14.50;;
2650;SDS011;1335;48.180;16.342;2023-12-04T07:02:09;20.17;;;12.73;;
2650;SDS011;1335;48.180;16.342;2023-12-04T07:04:37;20.45;;;12.88;;
2650;SDS011;1335;48.180;16.342;2023-12-04T07:07:05;20.23;;;12.68;;
2650;SDS011;1335;48.180;16.342;2023-12-04T07:09:32;22.20;;;12.38;;
2650;SDS011;1335;48.180;16.342;2023-12-04T07:12:00;22.67;;;12.38;;
2650;SDS011;1335;48.180;16.342;2023-12-04T07:14:27;15.75;;;10.38;;
2650;SDS011;1335;48.180;16.342;2023-12-04T07:16:56;19.98;;;12.38;;
2650;SDS011;1335;48.180;16.342;2023-12-04T07:19:23;18.92;;;12.52;;
2650;SDS011;1335;48.180;16.342;2023-12-04T07:21:52;20.55;;;12.85;;
2650;SDS011;1335;48.180;16.342;2023-12-04T07:24:19;18.35;;;12.10;;
2650;SDS011;1335;48.180;16.342;2023-12-04T07:26:46;17.85;;;11.95;;
2650;SDS011;1335;48.180;16.342;2023-12-04T07:29:14;17.17;;;12.32;;
2650;SDS011;1335;48.180;16.342;2023-12-04T07:31:41;16.15;;;12.15;;
2650;SDS011;1335;48.180;16.342;2023-12-04T07:34:10;18.80;;;12.43;;
2650;SDS011;1335;48.180;16.342;2023-12-04T07:36:37;20.85;;;12.25;;
2650;SDS011;1335;48.180;16.342;2023-12-04T07:39:05;22.10;;;12.35;;
2650;SDS011;1335;48.180;16.342;2023-12-04T07:41:32;18.95;;;12.15;;
2650;SDS011;1335;48.180;16.342;2023-12-04T07:43:59;18.00;;;13.15;;
2650;SDS011;1335;48.180;16.342;2023-12-04T07:46:28;21.13;;;12.68;;
2650;SDS011;1335;48.180;16.342;2023-12-04T07:48:55;21.00;;;13.05;;
2650;SDS011;1335;48.180;16.342;2023-12-04T07:51:24;17.75;;;12.45;;
2650;SDS011;1335;48.180;16.342;2023-12-04T07:53:51;18.98;;;10.98;;
2650;SDS011;1335;48.180;16.342;2023-12-04T07:56:19;15.20;;;11.07;;
2650;SDS011;1335;48.180;16.342;2023-12-04T07:58:47;16.50;;;12.20;;
2650;SDS011;1335;48.180;16.342;2023-12-04T08:01:14;19.83;;;12.15;;
2650;SDS011;1335;48.180;16.342;2023-12-04T08:03:42;21.25;;;12.27;;
2650;SDS011;1335;48.180;16.342;2023-12-04T08:06:09;16.65;;;11.75;;
2650;SDS011;1335;48.180;16.342;2023-12-04T08:08:38;18.63;;;12.50;;
2650;SDS011;1335;48.180;16.342;2023-12-04T08:11:05;20.55;;;11.70;;
2650;SDS011;1335;48.180;16.342;2023-12-04T08:13:33;18.50;;;11.65;;
2650;SDS011;1335;48.180;16.342;2023-12-04T08:16:00;18.65;;;11.80;;
2650;SDS011;1335;48.180;16.342;2023-12-04T08:18:27;19.77;;;13.45;;
2650;SDS011;1335;48.180;16.342;2023-12-04T08:20:55;18.52;;;12.65;;
2650;SDS011;1335;48.180;16.342;2023-12-04T08:23:22;22.80;;;12.68;;
2650;SDS011;1335;48.180;16.342;2023-12-04T08:25:51;20.25;;;11.98;;
2650;SDS011;1335;48.180;16.342;2023-12-04T08:28:18;20.38;;;12.07;;
2650;SDS011;1335;48.180;16.342;2023-12-04T08:30:45;19.98;;;13.00;;
2650;SDS011;1335;48.180;16.342;2023-12-04T08:33:14;18.58;;;11.98;;
2650;SDS011;1335;48.180;16.342;2023-12-04T08:35:41;18.52;;;12.10;;
2650;SDS011;1335;48.180;16.342;2023-12-04T08:38:08;15.75;;;11.40;;
2650;SDS011;1335;48.180;16.342;2023-12-04T08:40:36;17.00;;;11.63;;
2650;SDS011;1335;48.180;16.342;2023-12-04T08:43:05;18.45;;;13.13;;
2650;SDS011;1335;48.180;16.342;2023-12-04T08:45:32;15.10;;;11.27;;
2650;SDS011;1335;48.180;16.342;2023-12-04T08:47:59;16.20;;;11.70;;
2650;SDS011;1335;48.180;16.342;2023-12-04T08:50:26;19.45;;;12.82;;
2650;SDS011;1335;48.180;16.342;2023-12-04T08:52:54;17.58;;;12.13;;
2650;SDS011;1335;48.180;16.342;2023-12-04T08:55:21;18.40;;;12.55;;
2650;SDS011;1335;48.180;16.342;2023-12-04T08:57:48;22.25;;;11.77;;
2650;SDS011;1335;48.180;16.342;2023-12-04T09:00:17;15.50;;;11.60;;
2650;SDS011;1335;48.180;16.342;2023-12-04T09:02:45;15.57;;;11.43;;
2650;SDS011;1335;48.180;16.342;2023-12-04T09:05:12;14.75;;;10.55;;
2650;SDS011;1335;48.180;16.342;2023-12-04T09:07:39;13.23;;;10.63;;
2650;SDS011;1335;48.180;16.342;2023-12-04T09:10:07;16.88;;;11.90;;
2650;SDS011;1335;48.180;16.342;2023-12-04T09:12:34;17.55;;;12.40;;
2650;SDS011;1335;48.180;16.342;2023-12-04T09:15:03;16.38;;;11.88;;
2650;SDS011;1335;48.180;16.342;2023-12-04T09:17:32;14.93;;;11.70;;
2650;SDS011;1335;48.180;16.342;2023-12-04T09:19:59;15.77;;;11.32;;
2650;SDS011;1335;48.180;16.342;2023-12-04T09:22:27;14.55;;;11.70;;
2650;SDS011;1335;48.180;16.342;2023-12-04T09:24:55;14.23;;;10.57;;
2650;SDS011;1335;48.180;16.342;2023-12-04T09:27:22;15.55;;;11.30;;
2650;SDS011;1335;48.180;16.342;2023-12-04T09:29:50;17.40;;;11.80;;
2650;SDS011;1335;48.180;16.342;2023-12-04T09:32:17;16.08;;;10.68;;
2650;SDS011;1335;48.180;16.342;2023-12-04T09:34:46;14.18;;;11.48;;
2650;SDS011;1335;48.180;16.342;2023-12-04T09:37:13;16.30;;;11.20;;
2650;SDS011;1335;48.180;16.342;2023-12-04T09:39:40;19.85;;;12.20;;
2650;SDS011;1335;48.180;16.342;2023-12-04T09:42:08;16.60;;;11.27;;
2650;SDS011;1335;48.180;16.342;2023-12-04T09:44:36;13.38;;;10.68;;
2650;SDS011;1335;48.180;16.342;2023-12-04T09:47:03;15.63;;;9.70;;
2650;SDS011;1335;48.180;16.342;2023-12-04T09:49:32;13.10;;;10.32;;
2650;SDS011;1335;48.180;16.342;2023-12-04T09:52:00;12.05;;;9.43;;
2650;SDS011;1335;48.180;16.342;2023-12-04T09:54:28;12.40;;;10.00;;
2650;SDS011;1335;48.180;16.342;2023-12-04T09:56:56;15.32;;;9.80;;
2650;SDS011;1335;48.180;16.342;2023-12-04T09:59:24;12.65;;;10.25;;
2650;SDS011;1335;48.180;16.342;2023-12-04T10:01:51;11.85;;;9.43;;
2650;SDS011;1335;48.180;16.342;2023-12-04T10:04:19;11.98;;;9.80;;
2650;SDS011;1335;48.180;16.342;2023-12-04T10:06:47;12.80;;;10.17;;
2650;SDS011;1335;48.180;16.342;2023-12-04T10:09:17;11.50;;;9.70;;
2650;SDS011;1335;48.180;16.342;2023-12-04T10:11:47;11.77;;;10.03;;
2650;SDS011;1335;48.180;16.342;2023-12-04T10:14:16;12.75;;;9.15;;
2650;SDS011;1335;48.180;16.342;2023-12-04T10:16:44;10.98;;;9.63;;
2650;SDS011;1335;48.180;16.342;2023-12-04T10:19:15;11.68;;;9.25;;
2650;SDS011;1335;48.180;16.342;2023-12-04T10:21:43;10.18;;;9.00;;
2650;SDS011;1335;48.180;16.342;2023-12-04T10:24:11;10.38;;;8.55;;
2650;SDS011;1335;48.180;16.342;2023-12-04T10:26:42;12.88;;;8.80;;
2650;SDS011;1335;48.180;16.342;2023-12-04T10:29:16;13.80;;;9.88;;
2650;SDS011;1335;48.180;16.342;2023-12-04T10:31:44;14.20;;;10.30;;
2650;SDS011;1335;48.180;16.342;2023-12-04T10:34:13;12.35;;;8.75;;
2650;SDS011;1335;48.180;16.342;2023-12-04T10:36:40;11.10;;;8.40;;
2650;SDS011;1335;48.180;16.342;2023-12-04T10:39:07;11.50;;;8.95;;
2650;SDS011;1335;48.180;16.342;2023-12-04T10:41:35;13.20;;;9.00;;
2650;SDS011;1335;48.180;16.342;2023-12-04T10:44:04;18.17;;;11.68;;
2650;SDS011;1335;48.180;16.342;2023-12-04T10:46:31;33.20;;;19.13;;
2650;SDS011;1335;48.180;16.342;2023-12-04T10:48:59;14.57;;;11.27;;
2650;SDS011;1335;48.180;16.342;2023-12-04T10:51:27;12.95;;;9.77;;
2650;SDS011;1335;48.180;16.342;2023-12-04T10:53:55;12.15;;;10.20;;
2650;SDS011;1335;48.180;16.342;2023-12-04T10:56:25;13.20;;;10.05;;
2650;SDS011;1335;48.180;16.342;2023-12-04T10:58:54;10.85;;;9.32;;
2650;SDS011;1335;48.180;16.342;2023-12-04T11:01:23;15.00;;;10.75;;
2650;SDS011;1335;48.180;16.342;2023-12-04T11:03:51;11.05;;;9.15;;
2650;SDS011;1335;48.180;16.342;2023-12-04T11:06:20;16.52;;;10.05;;
2650;SDS011;1335;48.180;16.342;2023-12-04T11:08:48;12.05;;;9.38;;
2650;SDS011;1335;48.180;16.342;2023-12-04T11:11:19;12.73;;;9.50;;
2650;SDS011;1335;48.180;16.342;2023-12-04T11:13:49;10.63;;;8.38;;
2650;SDS011;1335;48.180;16.342;2023-12-04T11:16:18;11.53;;;8.67;;
2650;SDS011;1335;48.180;16.342;2023-12-04T11:18:51;11.37;;;8.70;;
2650;SDS011;1335;48.180;16.342;2023-12-04T11:21:18;9.97;;;8.50;;
2650;SDS011;1335;48.180;16.342;2023-12-04T11:23:46;10.00;;;7.93;;
2650;SDS011;1335;48.180;16.342;2023-12-04T11:26:14;8.93;;;7.00;;
2650;SDS011;1335;48.180;16.342;2023-12-04T11:28:42;11.30;;;8.80;;
2650;SDS011;1335;48.180;16.342;2023-12-04T11:31:10;26.50;;;12.47;;
2650;SDS011;1335;48.180;16.342;2023-12-04T11:33:37;10.40;;;6.97;;
2650;SDS011;1335;48.180;16.342;2023-12-04T11:36:07;9.10;;;7.30;;
2650;SDS011;1335;48.180;16.342;2023-12-04T11:38:34;14.33;;;11.50;;
2650;SDS011;1335;48.180;16.342;2023-12-04T11:41:11;8.97;;;8.00;;
2650;SDS011;1335;48.180;16.342;2023-12-04T11:43:39;8.10;;;6.70;;
2650;SDS011;1335;48.180;16.342;2023-12-04T11:46:09;9.90;;;7.60;;
2650;SDS011;1335;48.180;16.342;2023-12-04T11:48:37;8.27;;;7.30;;
2650;SDS011;1335;48.180;16.342;2023-12-04T11:51:06;15.90;;;7.53;;
2650;SDS011;1335;48.180;16.342;2023-12-04T11:53:37;6.73;;;6.03;;
2650;SDS011;1335;48.180;16.342;2023-12-04T11:56:08;7.47;;;5.82;;
2650;SDS011;1335;48.180;16.342;2023-12-04T11:58:41;6.53;;;5.55;;
2650;SDS011;1335;48.180;16.342;2023-12-04T12:01:09;6.97;;;5.38;;
2650;SDS011;1335;48.180;16.342;2023-12-04T12:03:36;5.28;;;4.35;;
2650;SDS011;1335;48.180;16.342;2023-12-04T12:06:05;8.15;;;5.95;;
2650;SDS011;1335;48.180;16.342;2023-12-04T12:08:33;5.75;;;4.65;;
2650;SDS011;1335;48.180;16.342;2023-12-04T12:11:01;5.30;;;4.80;;
2650;SDS011;1335;48.180;16.342;2023-12-04T12:13:28;13.30;;;5.28;;
2650;SDS011;1335;48.180;16.342;2023-12-04T12:15:56;6.30;;;5.22;;
2650;SDS011;1335;48.180;16.342;2023-12-04T12:18:23;7.95;;;6.05;;
2650;SDS011;1335;48.180;16.342;2023-12-04T12:20:51;8.27;;;5.35;;
2650;SDS011;1335;48.180;16.342;2023-12-04T12:23:18;7.45;;;6.63;;
2650;SDS011;1335;48.180;16.342;2023-12-04T12:25:47;8.48;;;6.28;;
2650;SDS011;1335;48.180;16.342;2023-12-04T12:28:15;11.45;;;7.68;;
2650;SDS011;1335;48.180;16.342;2023-12-04T12:30:42;9.73;;;7.20;;
2650;SDS011;1335;48.180;16.342;2023-12-04T12:33:12;9.25;;;7.30;;
2650;SDS011;1335;48.180;16.342;2023-12-04T12:35:40;11.15;;;7.80;;
2650;SDS011;1335;48.180;16.342;2023-12-04T12:38:07;17.50;;;11.18;;
2650;SDS011;1335;48.180;16.342;2023-12-04T12:40:34;9.35;;;7.95;;
2650;SDS011;1335;48.180;16.342;2023-12-04T12:43:07;14.07;;;8.65;;
2650;SDS011;1335;48.180;16.342;2023-12-04T12:45:40;10.85;;;8.60;;
2650;SDS011;1335;48.180;16.342;2023-12-04T12:48:10;13.60;;;10.00;;
2650;SDS011;1335;48.180;16.342;2023-12-04T12:50:37;13.50;;;9.40;;
2650;SDS011;1335;48.180;16.342;2023-12-04T12:53:04;10.93;;;7.97;;
2650;SDS011;1335;48.180;16.342;2023-12-04T12:55:32;12.13;;;7.97;;
2650;SDS011;1335;48.180;16.342;2023-12-04T12:58:00;10.30;;;7.43;;
2650;SDS011;1335;48.180;16.342;2023-12-04T13:00:29;11.65;;;8.80;;
2650;SDS011;1335;48.180;16.342;2023-12-04T13:02:56;9.18;;;7.25;;
2650;SDS011;1335;48.180;16.342;2023-12-04T13:05:23;11.73;;;8.10;;
2650;SDS011;1335;48.180;16.342;2023-12-04T13:07:51;10.35;;;7.65;;
2650;SDS011;1335;48.180;16.342;2023-12-04T13:10:18;10.75;;;7.57;;
2650;SDS011;1335;48.180;16.342;2023-12-04T13:12:45;11.82;;;9.50;;
2650;SDS011;1335;48.180;16.342;2023-12-04T13:15:17;12.32;;;9.13;;
2650;SDS011;1335;48.180;16.342;2023-12-04T13:17:46;12.27;;;9.30;;
2650;SDS011;1335;48.180;16.342;2023-12-04T13:20:13;11.75;;;9.27;;
2650;SDS011;1335;48.180;16.342;2023-12-04T13:22:42;13.23;;;9.32;;
2650;SDS011;1335;48.180;16.342;2023-12-04T13:25:09;10.15;;;9.05;;
2650;SDS011;1335;48.180;16.342;2023-12-04T13:27:37;8.60;;;6.80;;
2650;SDS011;1335;48.180;16.342;2023-12-04T13:30:05;11.02;;;7.10;;
2650;SDS011;1335;48.180;16.342;2023-12-04T13:32:33;8.57;;;6.45;;
2650;SDS011;1335;48.180;16.342;2023-12-04T13:35:02;6.88;;;5.80;;
2650;SDS011;1335;48.180;16.342;2023-12-04T13:37:29;6.85;;;5.80;;
2650;SDS011;1335;48.180;16.342;2023-12-04T13:39:57;10.07;;;6.55;;
2650;SDS011;1335;48.180;16.342;2023-12-04T13:42:29;9.32;;;5.97;;
2650;SDS011;1335;48.180;16.342;2023-12-04T13:45:14;12.35;;;6.82;;
2650;SDS011;1335;48.180;16.342;2023-12-04T13:47:41;8.75;;;6.30;;
2650;SDS011;1335;48.180;16.342;2023-12-04T13:50:10;9.85;;;7.05;;
2650;SDS011;1335;48.180;16.342;2023-12-04T13:52:38;10.75;;;6.60;;
2650;SDS011;1335;48.180;16.342;2023-12-04T13:55:07;8.20;;;6.93;;
2650;SDS011;1335;48.180;16.342;2023-12-04T13:57:40;9.43;;;6.82;;
2650;SDS011;1335;48.180;16.342;2023-12-04T14:00:21;7.90;;;6.38;;
2650;SDS011;1335;48.180;16.342;2023-12-04T14:02:49;8.63;;;7.30;;
2650;SDS011;1335;48.180;16.342;2023-12-04T14:05:20;12.57;;;9.85;;
2650;SDS011;1335;48.180;16.342;2023-12-04T14:07:47;9.63;;;6.50;;
2650;SDS011;1335;48.180;16.342;2023-12-04T14:10:14;11.00;;;8.27;;
2650;SDS011;1335;48.180;16.342;2023-12-04T14:12:41;11.88;;;7.85;;
2650;SDS011;1335;48.180;16.342;2023-12-04T14:15:09;11.00;;;8.60;;
2650;SDS011;1335;48.180;16.342;2023-12-04T14:17:37;8.13;;;6.10;;
2650;SDS011;1335;48.180;16.342;2023-12-04T14:20:05;9.63;;;6.65;;
2650;SDS011;1335;48.180;16.342;2023-12-04T14:22:40;9.55;;;7.10;;
2650;SDS011;1335;48.180;16.342;2023-12-04T14:25:08;8.68;;;7.00;;
2650;SDS011;1335;48.180;16.342;2023-12-04T14:27:35;8.75;;;6.88;;
2650;SDS011;1335;48.180;16.342;2023-12-04T14:30:05;10.07;;;6.35;;
2650;SDS011;1335;48.180;16.342;2023-12-04T14:32:33;8.63;;;6.05;;
2650;SDS011;1335;48.180;16.342;2023-12-04T14:35:01;7.90;;;6.80;;
2650;SDS011;1335;48.180;16.342;2023-12-04T14:37:28;11.38;;;6.75;;
2650;SDS011;1335;48.180;16.342;2023-12-04T14:39:57;9.02;;;6.63;;
2650;SDS011;1335;48.180;16.342;2023-12-04T14:42:24;8.85;;;7.22;;
2650;SDS011;1335;48.180;16.342;2023-12-04T14:44:51;9.20;;;6.15;;
2650;SDS011;1335;48.180;16.342;2023-12-04T14:47:19;10.52;;;6.90;;